Singer Island, Florida
Current Conditions -  °F | °C
As of 8:53 AM on Wednesday 26 Nov 2014 (Local Time) from KPBI Reporting Station
Overcast Overcast  
Wind Chill: 76°   Ceiling: 2000
Heat Index: 76°   Visibility: 10mi
Dew Point: 73°   Wind: 13mph
Humidity: 91%   Direction: 250°WSW
Pressure: 30.01"   Gusts: NA
Location:  26.7789°N, 80.0745°W
Report Text: KPBI 261353Z 25011KT 10SM SCT013 BKN020 OVC030 24/23 A3001 RMK AO2 WSHFT 1240 RAE39 SLP161 P0012 T02440228
Loading
Personal Weather Stations






























Interactive Weather Map New forecast layout! Learn more

10-Day Weather Forecast

Advertisements
Track Severe Weather on mobile